Time;durP1;ratioP1;P1;durP2;ratioP2;P2;SDS_P1;SDS_P2;PMS_P1;PMS_P2;Temp;Humidity;BMP_temperature;BMP_pressure;BME280_temperature;BME280_humidity;BME280_pressure;Samples;Min_cycle;Max_cycle;Signal;HPM_P1;HPM_P2
2022/02/06 00:00:00;;;;;;;15.25;7.25;;;;;;;8.41;66.60;100396.28;5070401;28;20047;-77
2022/02/06 00:02:34;;;;;;;12.18;6.68;;;;;;;8.44;66.65;100397.81;5065788;28;20048;-77
2022/02/06 00:04:59;;;;;;;14.68;6.78;;;;;;;8.50;66.09;100399.94;5071069;28;20239;-77
2022/02/06 00:07:24;;;;;;;12.95;7.30;;;;;;;8.34;66.87;100394.31;5069495;28;20060;-78
2022/02/06 00:09:50;;;;;;;14.52;7.07;;;;;;;8.36;66.86;100397.66;5073989;28;20270;-77
2022/02/06 00:12:16;;;;;;;15.90;8.57;;;;;;;8.36;66.15;100385.28;5066152;28;20037;-78
2022/02/06 00:14:41;;;;;;;12.40;6.53;;;;;;;8.49;66.11;100409.66;5072161;28;20044;-78
2022/02/06 00:17:09;;;;;;;13.43;7.22;;;;;;;8.53;66.26;100416.34;5071452;28;20059;-77
2022/02/06 00:19:35;;;;;;;11.40;6.57;;;;;;;8.54;65.78;100412.72;5073572;28;20083;-78
2022/02/06 00:22:06;;;;;;;11.23;6.78;;;;;;;8.40;65.99;100407.81;5066972;28;20373;-77
2022/02/06 00:25:14;;;;;;;14.93;6.53;;;;;;;8.34;66.59;100413.63;5072915;28;20204;-77
2022/02/06 00:27:33;;;;;;;11.98;6.55;;;;;;;8.43;65.37;100407.53;5071834;28;20061;-77
2022/02/06 00:30:10;;;;;;;12.35;7.20;;;;;;;8.40;65.91;100412.25;5070975;28;20326;-77
2022/02/06 00:32:46;;;;;;;12.15;6.60;;;;;;;8.36;65.44;100416.13;5070167;28;20037;-77
2022/02/06 00:35:25;;;;;;;18.20;7.40;;;;;;;8.47;65.30;100421.31;5073219;28;20040;-78
2022/02/06 00:41:14;;;;;;;13.93;7.32;;;;;;;8.40;65.11;100418.38;5069255;28;20319;-77
2022/02/06 00:43:14;;;;;;;11.40;6.63;;;;;;;8.45;64.89;100423.25;5060256;28;20089;-78
2022/02/06 00:45:39;;;;;;;17.25;7.68;;;;;;;8.39;64.87;100421.97;5073798;28;20020;-77
2022/02/06 00:48:05;;;;;;;15.25;7.18;;;;;;;8.40;64.73;100425.44;5072859;28;20094;-77
2022/02/06 00:50:33;;;;;;;16.92;7.32;;;;;;;8.41;64.25;100420.03;5069910;28;20099;-77
2022/02/06 00:53:05;;;;;;;16.35;7.07;;;;;;;8.51;64.17;100428.84;5069693;28;20064;-77
2022/02/06 00:55:31;;;;;;;16.27;7.45;;;;;;;8.50;64.39;100435.06;5065996;28;20329;-78
2022/02/06 00:57:57;;;;;;;14.63;6.93;;;;;;;8.51;64.43;100438.56;5069943;28;20016;-78
2022/02/06 01:00:23;;;;;;;17.92;7.65;;;;;;;8.44;64.21;100432.97;5068716;28;20111;-78
2022/02/06 01:02:49;;;;;;;13.50;6.82;;;;;;;8.38;64.45;100430.03;5070365;28;20024;-77
2022/02/06 01:05:15;;;;;;;15.13;7.25;;;;;;;8.32;64.65;100428.69;5069684;28;20261;-78
2022/02/06 01:07:40;;;;;;;17.25;7.93;;;;;;;8.44;64.25;100430.34;5065957;28;20040;-77
2022/02/06 01:10:06;;;;;;;16.10;8.00;;;;;;;8.15;65.39;100430.09;5069776;28;20032;-78
2022/02/06 01:12:34;;;;;;;19.83;7.55;;;;;;;8.14;65.30;100435.50;5071106;28;20032;-77
2022/02/06 01:15:14;;;;;;;17.27;7.72;;;;;;;7.99;65.77;100427.94;5071501;28;20369;-77
2022/02/06 01:20:21;;;;;;;15.20;7.18;;;;;;;8.24;65.15;100441.69;5065898;28;20223;-77
2022/02/06 01:22:58;;;;;;;12.05;7.30;;;;;;;8.20;65.57;100449.03;5070096;28;20103;-78
2022/02/06 01:25:32;;;;;;;16.00;7.25;;;;;;;8.10;65.79;100447.28;5069297;28;20024;-78
2022/02/06 01:28:11;;;;;;;16.08;7.80;;;;;;;8.10;65.37;100434.94;5067417;28;20029;-78
2022/02/06 01:33:12;;;;;;;16.75;8.35;;;;;;;7.77;66.42;100422.78;5072612;28;20017;-77
2022/02/06 01:36:44;;;;;;;15.80;7.80;;;;;;;7.92;66.96;100439.13;5068551;28;20044;-77
2022/02/06 01:38:58;;;;;;;;;;;;;;;7.78;67.16;100442.06;5060289;28;20071;-77
2022/02/06 01:41:24;;;;;;;14.95;7.60;;;;;;;7.73;66.90;100438.97;5070544;28;19916;-77
2022/02/06 01:43:56;;;;;;;13.55;8.10;;;;;;;7.77;67.57;100428.06;5076517;28;20013;-77
2022/02/06 02:12:58;;;;;;;12.15;6.03;;;;;;;7.99;64.33;100413.91;5073018;28;20040;-78
2022/02/06 02:47:22;;;;;;;10.95;5.47;;;;;;;7.79;64.63;100420.84;5072942;28;20037;-78
2022/02/06 02:49:53;;;;;;;14.35;6.05;;;;;;;7.63;64.66;100409.91;5069469;28;20211;-78
2022/02/06 03:00:53;;;;;;;14.07;5.90;;;;;;;7.58;65.49;100425.25;5064546;28;20032;-77
2022/02/06 03:03:23;;;;;;;9.35;5.28;;;;;;;7.36;65.53;100397.22;5071365;28;20227;-78
2022/02/06 03:05:51;;;;;;;10.40;6.05;;;;;;;7.72;65.49;100424.13;5068416;28;20091;-78
2022/02/06 03:08:19;;;;;;;9.48;5.97;;;;;;;7.71;65.41;100433.84;5068540;28;20036;-77
2022/02/06 03:10:44;;;;;;;14.57;5.95;;;;;;;7.86;64.58;100443.09;5067700;28;20029;-77
2022/02/06 03:13:13;;;;;;;10.73;5.45;;;;;;;7.81;65.18;100439.19;5068406;28;20124;-77
2022/02/06 03:18:14;;;;;;;11.93;6.65;;;;;;;7.49;64.87;100394.41;5070627;28;20036;-77
2022/02/06 03:20:40;;;;;;;14.45;6.93;;;;;;;7.57;65.79;100431.50;5070661;28;20067;-77
2022/02/06 03:23:07;;;;;;;9.68;5.88;;;;;;;7.49;66.41;100429.50;5067614;28;20270;-77
2022/02/06 03:25:35;;;;;;;12.85;7.03;;;;;;;7.45;66.68;100435.97;5069238;28;20024;-77
2022/02/06 03:28:02;;;;;;;16.10;7.95;;;;;;;7.25;67.28;100429.66;5072321;28;20116;-78
2022/02/06 03:30:29;;;;;;;14.90;7.45;;;;;;;7.33;67.77;100432.53;5072867;28;20037;-77
2022/02/06 03:32:55;;;;;;;12.75;7.35;;;;;;;7.33;67.39;100434.34;5065876;28;20135;-77
2022/02/06 03:35:22;;;;;;;10.98;6.88;;;;;;;7.21;67.79;100425.59;5066792;28;20040;-78
2022/02/06 03:37:47;;;;;;;11.93;7.25;;;;;;;7.39;66.86;100427.72;5068409;28;20096;-78
2022/02/06 03:40:26;;;;;;;12.25;7.32;;;;;;;7.47;67.08;100425.31;5075259;28;20195;-77
2022/02/06 03:45:58;;;;;;;14.25;7.38;;;;;;;7.29;67.31;100425.84;5045476;28;20079;-78
2022/02/06 03:48:33;;;;;;;14.43;7.75;;;;;;;7.21;67.76;100428.22;5066433;28;20025;-77
2022/02/06 03:51:05;;;;;;;13.20;7.22;;;;;;;7.32;67.02;100437.94;5065606;28;20035;-77
2022/02/06 03:53:31;;;;;;;13.32;7.32;;;;;;;7.22;67.81;100444.88;5070035;28;20316;-78
2022/02/06 03:55:59;;;;;;;14.13;7.88;;;;;;;7.01;68.89;100445.63;5067226;28;20051;-77
2022/02/06 03:58:24;;;;;;;15.10;8.23;;;;;;;7.09;68.69;100439.75;5065734;28;20030;-77
2022/02/06 04:00:50;;;;;;;13.63;8.20;;;;;;;7.14;67.76;100448.13;5069090;28;20032;-78
2022/02/06 04:03:15;;;;;;;14.02;8.20;;;;;;;7.21;67.56;100440.56;5064181;28;20318;-78
2022/02/06 04:05:46;;;;;;;15.75;8.80;;;;;;;6.89;68.56;100446.59;5070955;28;20031;-77
2022/02/06 04:08:17;;;;;;;15.60;8.15;;;;;;;6.90;68.85;100444.81;5061613;28;20092;-77
2022/02/06 04:10:47;;;;;;;17.02;9.23;;;;;;;6.83;68.94;100448.88;5070861;28;20071;-77
2022/02/06 04:13:19;;;;;;;16.00;8.80;;;;;;;6.86;69.23;100441.59;5072226;28;20139;-77
2022/02/06 04:15:49;;;;;;;18.25;9.25;;;;;;;6.57;69.63;100448.31;5067734;28;20074;-77
2022/02/06 04:18:20;;;;;;;17.02;9.60;;;;;;;6.35;70.40;100434.19;5063866;28;20230;-77
2022/02/06 04:20:45;;;;;;;18.52;10.00;;;;;;;6.38;70.41;100457.63;5066570;28;20319;-77
2022/02/06 04:23:11;;;;;;;17.75;10.07;;;;;;;6.42;70.30;100449.47;5070432;28;20139;-77
2022/02/06 04:25:37;;;;;;;18.85;10.00;;;;;;;6.19;70.82;100441.53;5069742;28;20029;-77
2022/02/06 04:28:03;;;;;;;20.23;10.48;;;;;;;6.27;71.42;100470.75;5067330;28;20024;-77
2022/02/06 04:30:28;;;;;;;18.55;10.13;;;;;;;6.33;71.25;100470.28;5068582;28;20024;-77
2022/02/06 04:32:54;;;;;;;20.33;9.82;;;;;;;6.45;70.87;100472.94;5066991;28;20362;-77
2022/02/06 04:35:22;;;;;;;20.80;10.55;;;;;;;6.16;71.05;100440.94;5069830;28;20275;-77
2022/02/06 05:31:08;;;;;;;15.32;9.15;;;;;;;6.09;71.32;100524.69;5039302;28;20030;-77
2022/02/06 05:33:35;;;;;;;19.30;10.30;;;;;;;6.06;71.55;100528.41;5058590;28;20058;-77
2022/02/06 05:36:03;;;;;;;17.75;9.40;;;;;;;6.34;70.82;100537.72;5070547;28;20044;-77
2022/02/06 05:38:28;;;;;;;18.40;9.43;;;;;;;6.48;70.39;100541.09;5077827;28;20039;-77
2022/02/06 05:40:54;;;;;;;16.42;8.82;;;;;;;6.57;69.61;100528.06;5074675;28;20032;-77
2022/02/06 05:43:19;;;;;;;18.75;9.93;;;;;;;6.64;68.51;100523.19;5070083;28;20045;-77
2022/02/06 05:45:45;;;;;;;20.38;10.52;;;;;;;6.59;69.14;100547.22;5077565;28;20036;-77
2022/02/06 05:48:10;;;;;;;18.48;10.65;;;;;;;6.65;68.12;100538.84;5075298;28;20033;-77
2022/02/06 05:50:39;;;;;;;27.42;12.07;;;;;;;6.66;68.33;100539.69;5074978;28;20096;-77
2022/02/06 05:53:05;;;;;;;21.55;11.50;;;;;;;6.77;67.97;100539.69;5076761;28;20028;-77
2022/02/06 05:55:30;;;;;;;24.20;13.23;;;;;;;6.65;67.43;100552.00;5079162;28;20095;-77
2022/02/06 05:57:56;;;;;;;26.50;12.80;;;;;;;6.64;66.92;100537.19;5069325;28;20373;-77
2022/02/06 06:00:21;;;;;;;30.23;14.95;;;;;;;6.50;67.67;100539.19;5072838;28;20067;-77
2022/02/06 06:02:47;;;;;;;32.03;15.00;;;;;;;6.74;68.01;100542.56;5069844;28;20044;-77
2022/02/06 06:05:12;;;;;;;26.95;14.27;;;;;;;6.80;67.97;100543.88;5072116;28;20196;-77
2022/02/06 06:07:44;;;;;;;29.02;14.43;;;;;;;6.78;67.44;100535.28;5075995;28;20025;-77
2022/02/06 06:10:10;;;;;;;32.38;14.75;;;;;;;6.88;67.05;100544.13;5069563;28;20021;-78
2022/02/06 06:12:36;;;;;;;32.13;14.00;;;;;;;6.86;66.69;100512.66;5073397;28;20329;-77
2022/02/06 06:15:02;;;;;;;22.67;11.27;;;;;;;7.02;66.44;100538.63;5073147;28;20044;-77
2022/02/06 06:17:28;;;;;;;22.67;11.05;;;;;;;7.25;65.80;100555.25;5073597;28;20048;-77
2022/02/06 06:19:55;;;;;;;20.92;11.80;;;;;;;7.29;65.13;100549.66;5072858;28;20024;-77
2022/02/06 06:22:21;;;;;;;21.15;11.07;;;;;;;7.44;64.97;100558.16;5075365;28;20028;-77
2022/02/06 06:24:52;;;;;;;20.15;9.93;;;;;;;7.43;64.64;100550.38;5070779;28;20036;-77
2022/02/06 06:27:18;;;;;;;22.05;10.15;;;;;;;7.34;64.92;100551.94;5073001;28;20071;-77
2022/02/06 06:29:45;;;;;;;12.25;8.23;;;;;;;7.71;63.31;100559.53;5075894;28;20036;-77
2022/02/06 06:32:10;;;;;;;15.85;8.43;;;;;;;7.60;63.63;100566.50;5065615;28;20028;-78
2022/02/06 06:34:36;;;;;;;14.73;7.93;;;;;;;7.56;63.18;100562.44;5071543;28;20033;-77
2022/02/06 06:37:01;;;;;;;15.88;7.03;;;;;;;7.76;61.69;100560.84;5068612;28;20108;-77
2022/02/06 06:39:44;;;;;;;13.70;6.50;;;;;;;7.82;61.49;100575.31;5071178;28;20024;-77
2022/02/06 06:42:11;;;;;;;12.32;7.13;;;;;;;7.84;61.02;100562.84;5070634;28;20076;-77
2022/02/06 06:44:38;;;;;;;14.43;7.07;;;;;;;8.18;60.80;100582.84;5071608;28;20023;-77
2022/02/06 06:47:05;;;;;;;18.50;8.70;;;;;;;8.37;59.26;100581.41;5070978;28;20041;-77
2022/02/06 06:49:31;;;;;;;16.67;6.95;;;;;;;8.56;59.16;100568.34;5074661;28;20044;-77
2022/02/06 06:51:57;;;;;;;13.30;6.32;;;;;;;8.69;58.44;100581.34;5070864;28;20273;-77
2022/02/06 06:54:23;;;;;;;13.32;6.28;;;;;;;8.76;58.56;100593.91;5075083;28;20039;-77
2022/02/06 06:57:07;;;;;;;13.60;7.22;;;;;;;8.80;57.94;100597.13;5075100;28;20032;-76
2022/02/06 07:02:18;;;;;;;12.68;6.25;;;;;;;9.11;56.96;100601.47;5070335;28;20451;-77
2022/02/06 07:04:46;;;;;;;12.60;6.72;;;;;;;9.16;56.54;100601.06;5071191;28;20035;-77
2022/02/06 07:07:11;;;;;;;16.30;7.40;;;;;;;9.28;56.10;100600.00;5067137;28;20041;-77
2022/02/06 07:09:37;;;;;;;11.45;6.55;;;;;;;9.36;55.63;100588.75;5070683;28;20050;-77
2022/02/06 07:12:03;;;;;;;19.38;6.53;;;;;;;9.38;55.71;100594.78;5069564;28;20098;-77
2022/02/06 07:14:29;;;;;;;11.07;6.50;;;;;;;9.54;54.81;100585.38;5071380;28;20028;-77
2022/02/06 07:16:55;;;;;;;12.48;6.95;;;;;;;9.69;54.54;100598.22;5074831;28;20045;-76
2022/02/06 07:19:20;;;;;;;13.43;7.10;;;;;;;9.49;54.62;100555.88;5072733;28;20041;-77
2022/02/06 07:21:46;;;;;;;12.80;7.22;;;;;;;9.95;53.63;100594.09;5072220;28;20040;-75
2022/02/06 07:24:14;;;;;;;20.05;8.75;;;;;;;9.87;53.01;100593.94;5070726;28;20032;-76
2022/02/06 07:26:40;;;;;;;18.75;8.88;;;;;;;10.05;52.24;100591.47;5073950;28;20053;-77
2022/02/06 07:29:05;;;;;;;19.42;9.07;;;;;;;10.01;52.37;100593.53;5068790;28;20032;-77
2022/02/06 07:31:32;;;;;;;15.82;8.07;;;;;;;9.99;52.40;100574.31;5070333;28;20033;-77
2022/02/06 07:33:58;;;;;;;17.65;8.30;;;;;;;10.36;51.50;100592.19;5068928;28;20261;-77
2022/02/06 07:36:23;;;;;;;17.73;8.23;;;;;;;10.55;50.75;100600.97;5070865;28;20047;-78
2022/02/06 07:38:49;;;;;;;16.17;7.97;;;;;;;10.39;50.30;100590.09;5071359;28;20218;-77
2022/02/06 07:41:14;;;;;;;15.52;8.27;;;;;;;10.40;49.50;100599.75;5072214;28;20036;-76
2022/02/06 07:43:40;;;;;;;13.18;7.78;;;;;;;10.71;49.20;100588.97;5070190;28;20033;-76
2022/02/06 07:46:10;;;;;;;13.30;6.57;;;;;;;10.59;48.83;100604.19;5071393;28;20242;-76
2022/02/06 07:48:37;;;;;;;10.55;6.68;;;;;;;10.90;48.68;100606.63;5069799;28;20025;-77
2022/02/06 07:51:05;;;;;;;18.33;7.45;;;;;;;10.88;47.92;100607.63;5064799;28;20028;-76
2022/02/06 07:53:31;;;;;;;14.88;7.88;;;;;;;10.95;47.83;100583.19;5068470;28;20021;-76
2022/02/06 07:55:57;;;;;;;14.27;7.85;;;;;;;11.11;47.46;100597.50;5071481;28;20028;-77
2022/02/06 07:58:22;;;;;;;15.20;6.53;;;;;;;11.06;47.12;100609.53;5069997;28;20306;-77
2022/02/06 08:00:48;;;;;;;13.52;7.07;;;;;;;11.14;47.02;100607.00;5066613;28;20029;-77
2022/02/06 08:03:13;;;;;;;13.65;7.28;;;;;;;11.25;46.39;100604.16;5070882;28;20361;-76
2022/02/06 08:05:39;;;;;;;28.90;7.82;;;;;;;11.40;45.03;100600.06;5066847;28;20357;-77
2022/02/06 08:08:12;;;;;;;18.98;6.63;;;;;;;11.28;45.14;100598.56;5068840;28;20380;-77
2022/02/06 08:10:38;;;;;;;12.00;6.93;;;;;;;11.02;45.76;100603.69;5064119;28;20032;-77
2022/02/06 08:13:23;;;;;;;15.68;7.50;;;;;;;11.12;46.11;100604.47;5068130;28;20028;-76
2022/02/06 08:15:48;;;;;;;13.02;6.80;;;;;;;11.40;44.95;100593.91;5069740;28;20065;-76
2022/02/06 08:18:14;;;;;;;14.55;6.97;;;;;;;11.49;44.99;100596.53;5068685;28;20045;-77
2022/02/06 08:20:40;;;;;;;14.00;7.05;;;;;;;11.44;46.25;100593.50;5067409;28;20047;-77
2022/02/06 08:23:06;;;;;;;14.88;8.13;;;;;;;11.51;45.89;100588.44;5074118;28;20043;-76
2022/02/06 08:25:32;;;;;;;15.48;9.38;;;;;;;11.61;45.90;100596.34;5069205;28;20028;-76
2022/02/06 08:27:58;;;;;;;18.83;9.68;;;;;;;11.54;46.26;100597.94;5072938;28;20067;-76
2022/02/06 08:30:24;;;;;;;15.98;10.05;;;;;;;11.74;45.67;100600.31;5071811;28;20036;-76
2022/02/06 08:32:49;;;;;;;16.38;9.60;;;;;;;11.86;44.89;100603.63;5069853;28;20391;-77
2022/02/06 08:35:15;;;;;;;14.98;8.13;;;;;;;11.95;43.77;100607.22;5070915;28;20040;-77
2022/02/06 08:37:41;;;;;;;14.88;7.38;;;;;;;12.05;42.99;100610.63;5073618;28;20044;-77
2022/02/06 08:40:12;;;;;;;14.82;7.30;;;;;;;12.01;42.08;100604.78;5066473;28;20056;-77
2022/02/06 08:42:39;;;;;;;17.67;7.47;;;;;;;11.98;41.70;100594.47;5068033;28;20060;-77
2022/02/06 08:45:05;;;;;;;13.70;7.68;;;;;;;12.19;42.01;100602.16;5069513;28;20385;-77
2022/02/06 08:47:31;;;;;;;14.93;7.35;;;;;;;12.23;42.15;100611.47;5070456;28;20036;-76
2022/02/06 08:49:56;;;;;;;11.57;6.13;;;;;;;12.25;40.77;100600.69;5070493;28;20020;-76
2022/02/06 08:52:22;;;;;;;10.05;5.32;;;;;;;12.47;40.46;100603.72;5069547;28;20051;-77
2022/02/06 08:54:47;;;;;;;10.40;6.50;;;;;;;12.62;40.80;100611.19;5067624;28;20364;-77
2022/02/06 08:57:21;;;;;;;10.55;5.95;;;;;;;12.74;40.00;100602.81;5067538;28;20443;-77
2022/02/06 08:59:47;;;;;;;11.90;6.53;;;;;;;12.74;39.57;100600.16;5075271;28;20037;-77
2022/02/06 09:02:13;;;;;;;12.13;5.93;;;;;;;12.86;40.00;100590.09;5072588;28;20045;-77
2022/02/06 09:04:38;;;;;;;10.38;5.13;;;;;;;12.91;38.89;100594.94;5064881;28;20089;-78
2022/02/06 09:07:04;;;;;;;11.40;5.97;;;;;;;12.80;40.05;100609.31;5065164;28;20099;-77
2022/02/06 09:09:30;;;;;;;13.50;5.93;;;;;;;12.89;40.38;100595.09;5066111;28;20235;-77
2022/02/06 09:11:57;;;;;;;11.90;5.68;;;;;;;13.06;39.80;100596.88;5069708;28;20326;-77
2022/02/06 09:14:24;;;;;;;11.48;5.38;;;;;;;13.05;39.52;100595.19;5068029;28;20381;-77
2022/02/06 09:16:51;;;;;;;11.80;5.63;;;;;;;13.14;40.10;100589.94;5068672;28;20025;-76
2022/02/06 09:19:18;;;;;;;10.57;4.97;;;;;;;13.27;39.65;100599.16;5067623;28;20271;-77
2022/02/06 09:21:44;;;;;;;12.95;5.07;;;;;;;13.31;38.49;100592.53;5066324;28;20055;-77
2022/02/06 09:24:10;;;;;;;9.82;4.75;;;;;;;13.36;38.93;100592.91;5069160;28;20318;-77
2022/02/06 09:26:37;;;;;;;9.35;5.53;;;;;;;13.49;39.78;100588.97;5072932;28;20064;-78
2022/02/06 09:29:04;;;;;;;9.23;5.30;;;;;;;13.36;40.16;100581.44;5067002;28;20397;-78
2022/02/06 09:31:30;;;;;;;6.80;4.70;;;;;;;13.42;40.04;100581.63;5073626;28;20033;-78
2022/02/06 09:36:22;;;;;;;11.82;6.43;;;;;;;13.30;39.93;100584.72;5068775;28;20039;-78
2022/02/06 09:38:48;;;;;;;8.45;5.05;;;;;;;13.26;40.08;100594.00;5067154;28;20043;-78
2022/02/06 09:41:13;;;;;;;10.48;6.35;;;;;;;13.30;39.21;100590.03;5066096;28;20051;-78
2022/02/06 09:43:40;;;;;;;9.65;5.13;;;;;;;13.41;39.45;100574.63;5067822;28;20315;-78
2022/02/06 09:46:06;;;;;;;14.70;8.73;;;;;;;13.27;39.51;100567.25;5070536;28;20041;-77
2022/02/06 09:48:32;;;;;;;7.63;4.47;;;;;;;13.39;39.06;100547.34;5067641;28;20012;-78
2022/02/06 09:51:00;;;;;;;10.55;4.90;;;;;;;13.50;39.85;100572.84;5071875;28;20111;-77
2022/02/06 09:53:32;;;;;;;8.32;4.75;;;;;;;13.51;39.56;100568.34;5069673;28;20045;-77
2022/02/06 09:56:02;;;;;;;8.00;5.10;;;;;;;13.38;39.81;100563.47;5068629;28;20025;-78
2022/02/06 10:01:06;;;;;;;8.52;4.63;;;;;;;13.56;40.04;100556.25;5070893;28;20378;-77
2022/02/06 10:03:38;;;;;;;12.15;6.22;;;;;;;13.70;39.46;100554.81;5073492;28;20226;-77
2022/02/06 10:06:07;;;;;;;12.02;5.90;;;;;;;13.43;39.14;100545.22;5065736;28;20074;-77
2022/02/06 10:08:38;;;;;;;6.30;3.10;;;;;;;13.48;38.46;100540.22;5070638;28;20043;-77
2022/02/06 10:11:11;;;;;;;7.07;3.90;;;;;;;13.42;38.65;100538.22;5062716;28;20060;-77
2022/02/06 10:13:39;;;;;;;8.18;3.42;;;;;;;13.40;38.68;100529.56;5066983;28;20094;-78
2022/02/06 10:16:07;;;;;;;9.55;3.63;;;;;;;13.56;38.85;100527.00;5070611;28;20025;-77
2022/02/06 10:18:32;;;;;;;7.20;4.03;;;;;;;13.62;38.42;100531.66;5071439;28;20025;-77
2022/02/06 10:20:58;;;;;;;9.48;3.63;;;;;;;13.66;38.64;100530.34;5070357;28;20140;-77
2022/02/06 10:23:35;;;;;;;20.15;8.60;;;;;;;13.80;38.50;100520.88;5074986;28;20036;-78
2022/02/06 10:26:09;;;;;;;8.25;4.50;;;;;;;13.78;38.32;100519.38;5066798;28;20025;-77
2022/02/06 10:31:06;;;;;;;6.28;3.03;;;;;;;13.76;37.75;100516.06;5074562;28;20124;-77
2022/02/06 10:33:50;;;;;;;6.60;3.67;;;;;;;13.76;37.62;100506.25;5069991;28;20032;-76
2022/02/06 10:36:23;;;;;;;7.63;3.97;;;;;;;13.84;37.51;100508.06;5070316;28;20215;-76
2022/02/06 10:39:00;;;;;;;8.27;3.20;;;;;;;13.64;37.28;100478.28;5070154;28;20045;-76
2022/02/06 10:41:26;;;;;;;20.27;4.38;;;;;;;13.66;37.23;100489.59;5067502;28;20099;-76
2022/02/06 10:44:00;;;;;;;8.20;3.83;;;;;;;13.74;36.77;100490.44;5071296;28;20032;-76
2022/02/06 10:46:28;;;;;;;8.65;3.90;;;;;;;13.80;36.80;100482.78;5075930;28;20369;-76
2022/02/06 10:48:56;;;;;;;9.07;5.53;;;;;;;13.86;36.87;100466.16;5071667;28;20253;-76
2022/02/06 10:51:42;;;;;;;10.45;4.75;;;;;;;13.95;36.74;100467.81;5069517;28;20199;-76
2022/02/06 10:54:25;;;;;;;16.30;8.82;;;;;;;13.99;36.09;100469.16;5078351;28;20024;-76
2022/02/06 10:57:14;;;;;;;34.10;17.05;;;;;;;13.83;36.36;100448.69;5086432;28;20052;-76
2022/02/06 10:59:42;;;;;;;14.88;4.97;;;;;;;13.96;34.67;100461.50;5071694;28;20063;-76
2022/02/06 11:02:20;;;;;;;18.42;8.52;;;;;;;13.91;36.24;100456.66;5071861;28;20317;-76
2022/02/06 11:07:57;;;;;;;24.42;11.18;;;;;;;13.92;34.33;100458.34;5065738;28;20103;-76
2022/02/06 11:10:25;;;;;;;14.15;5.00;;;;;;;13.72;34.30;100444.53;5072188;28;20322;-76
2022/02/06 11:12:59;;;;;;;8.57;4.15;;;;;;;13.77;35.78;100448.50;5069120;28;20032;-76
2022/02/06 11:15:37;;;;;;;;;;;;;;;13.61;34.59;100436.84;5072947;28;20099;-76
2022/02/06 11:18:12;;;;;;;15.57;8.40;;;;;;;13.78;36.12;100431.53;5078296;28;20188;-76
2022/02/06 11:20:51;;;;;;;17.25;9.45;;;;;;;13.86;34.63;100435.03;5071212;28;20334;-76
2022/02/06 11:23:17;;;;;;;8.82;3.72;;;;;;;13.84;35.01;100421.06;5065040;28;20033;-76
2022/02/06 11:25:43;;;;;;;7.32;4.18;;;;;;;13.77;36.11;100408.59;5072595;28;20043;-76
2022/02/06 11:28:12;;;;;;;11.27;5.13;;;;;;;13.94;35.96;100397.75;5070380;28;20041;-76
2022/02/06 11:30:42;;;;;;;16.85;10.05;;;;;;;13.77;36.98;100406.75;5067869;28;20054;-76
2022/02/06 11:33:08;;;;;;;7.95;3.50;;;;;;;13.78;35.89;100403.09;5066065;28;20032;-76
2022/02/06 11:35:36;;;;;;;26.98;13.13;;;;;;;13.86;35.21;100399.59;5072024;28;20266;-76
2022/02/06 11:44:00;;;;;;;8.40;3.55;;;;;;;13.70;35.24;100387.97;5068006;28;20047;-76
2022/02/06 11:46:35;;;;;;;12.93;5.13;;;;;;;13.71;35.12;100391.44;5072919;28;20222;-76
2022/02/06 11:49:12;;;;;;;14.55;6.40;;;;;;;13.77;34.81;100368.66;5075610;28;20043;-76
2022/02/06 11:51:48;;;;;;;14.13;7.03;;;;;;;13.91;34.06;100381.28;5071286;28;20088;-76
2022/02/06 11:54:42;;;;;;;8.30;4.57;;;;;;;13.67;34.46;100377.66;5069511;28;20376;-76
2022/02/06 12:00:08;;;;;;;6.88;3.50;;;;;;;13.66;33.91;100343.22;5069256;28;20066;-76
2022/02/06 12:02:36;;;;;;;7.07;3.10;;;;;;;13.60;33.56;100365.19;5067160;28;20037;-76
2022/02/06 12:05:24;;;;;;;7.07;3.40;;;;;;;13.75;34.27;100363.50;5070510;28;20028;-76
2022/02/06 12:07:52;;;;;;;9.02;3.65;;;;;;;13.74;34.23;100362.69;5070829;28;20025;-76
2022/02/06 12:10:42;;;;;;;4.97;3.28;;;;;;;13.73;34.44;100363.66;5070970;28;20024;-76
2022/02/06 12:16:06;;;;;;;5.60;2.67;;;;;;;13.89;33.87;100354.00;5074651;28;20043;-76
2022/02/06 12:18:39;;;;;;;6.55;2.78;;;;;;;13.96;33.65;100347.00;5067330;28;20032;-76
2022/02/06 12:21:23;;;;;;;10.15;3.53;;;;;;;14.15;33.94;100343.97;5068291;28;20037;-76
2022/02/06 12:23:57;;;;;;;5.30;3.08;;;;;;;13.90;34.26;100340.53;5066261;28;20036;-76
2022/02/06 12:26:31;;;;;;;5.05;3.15;;;;;;;14.03;34.06;100337.34;5065836;28;20036;-76
2022/02/06 12:29:08;;;;;;;6.18;3.08;;;;;;;14.07;32.16;100334.16;5070733;28;20112;-76
2022/02/06 12:31:47;;;;;;;6.60;2.35;;;;;;;14.03;32.77;100324.03;5066928;28;20063;-76
2022/02/06 12:36:54;;;;;;;4.68;2.95;;;;;;;14.05;33.00;100328.19;5066680;28;20083;-76
2022/02/06 12:37:28;;;;;;;3.95;2.17;;;;;;;13.79;31.90;100324.91;5068550;28;20099;-76
2022/02/06 12:39:57;;;;;;;4.20;2.53;;;;;;;13.85;32.37;100315.41;5067699;28;20044;-76
2022/02/06 12:42:50;;;;;;;3.95;2.88;;;;;;;13.94;33.13;100312.56;5066255;28;20090;-76
2022/02/06 12:45:18;;;;;;;6.72;3.35;;;;;;;13.98;33.02;100310.41;5068036;28;20044;-76
2022/02/06 12:47:47;;;;;;;9.48;3.00;;;;;;;13.90;32.27;100303.25;5068889;28;20567;-76
2022/02/06 12:50:12;;;;;;;4.70;2.05;;;;;;;13.89;31.22;100311.41;5070527;28;20298;-76
2022/02/06 12:52:38;;;;;;;3.60;1.88;;;;;;;13.76;30.06;100300.47;5070277;28;20025;-76
2022/02/06 12:55:04;;;;;;;6.15;2.80;;;;;;;14.04;30.93;100302.56;5067119;28;20025;-76
2022/02/06 12:57:29;;;;;;;5.45;3.03;;;;;;;13.83;32.37;100304.09;5067864;28;20323;-76
2022/02/06 12:59:55;;;;;;;8.63;3.50;;;;;;;13.89;33.50;100301.59;5065813;28;20037;-76
2022/02/06 13:02:22;;;;;;;15.40;7.07;;;;;;;13.99;33.14;100294.25;5067367;28;20295;-76
2022/02/06 13:05:02;;;;;;;6.57;3.50;;;;;;;14.09;33.27;100293.22;5068013;28;20029;-76
2022/02/06 13:07:30;;;;;;;9.23;5.63;;;;;;;14.14;33.03;100294.38;5068067;28;20032;-76
2022/02/06 13:10:02;;;;;;;7.53;3.50;;;;;;;14.15;32.93;100298.69;5071129;28;20270;-76
2022/02/06 13:12:52;;;;;;;6.68;3.85;;;;;;;14.29;32.58;100297.97;5065622;28;20048;-76
2022/02/06 13:15:46;;;;;;;6.15;2.97;;;;;;;14.11;32.69;100292.06;5067342;28;20036;-76
2022/02/06 13:18:29;;;;;;;9.75;2.92;;;;;;;14.10;32.76;100270.91;5068233;28;20076;-76
2022/02/06 13:21:25;;;;;;;5.25;3.00;;;;;;;14.12;33.15;100266.25;5068177;28;20258;-76
2022/02/06 13:29:42;;;;;;;;;;;;;;;14.34;33.37;100273.47;5061677;28;20329;-76
2022/02/06 13:32:32;;;;;;;6.50;2.67;;;;;;;14.10;33.41;100269.09;5067513;28;19924;-76
2022/02/06 13:35:56;;;;;;;8.02;3.72;;;;;;;14.02;33.30;100263.78;5069964;28;20028;-77
2022/02/06 13:38:00;;;;;;;8.45;3.58;;;;;;;14.04;33.01;100275.94;5065813;28;20045;-77
2022/02/06 13:40:32;;;;;;;3.75;2.72;;;;;;;14.08;33.11;100271.09;5066895;28;20036;-77
2022/02/06 13:43:14;;;;;;;9.75;2.72;;;;;;;14.14;32.87;100258.91;5067068;28;20041;-77
2022/02/06 13:45:42;;;;;;;4.80;2.50;;;;;;;14.03;33.29;100250.31;5070354;28;20028;-76
2022/02/06 13:48:12;;;;;;;8.02;3.65;;;;;;;14.17;32.63;100266.56;5071357;28;20040;-76
2022/02/06 13:50:44;;;;;;;6.70;3.65;;;;;;;14.22;32.66;100254.38;5068108;28;20054;-76
2022/02/06 13:53:15;;;;;;;5.38;3.33;;;;;;;14.09;32.83;100261.28;5071811;28;20044;-77
2022/02/06 13:55:52;;;;;;;4.75;2.83;;;;;;;14.09;33.16;100256.78;5074005;28;20058;-77
2022/02/06 13:58:22;;;;;;;5.75;3.97;;;;;;;14.15;32.87;100240.09;5075053;28;20346;-76
2022/02/06 14:01:07;;;;;;;6.10;3.25;;;;;;;14.32;33.06;100252.34;5070280;28;20052;-76
2022/02/06 14:03:56;;;;;;;6.80;3.35;;;;;;;14.10;33.28;100247.78;5072100;28;20257;-77
2022/02/06 14:06:36;;;;;;;4.10;2.65;;;;;;;14.03;33.21;100239.66;5072641;28;20319;-77
2022/02/06 14:09:14;;;;;;;5.80;3.25;;;;;;;14.07;33.43;100238.31;5066670;28;20245;-76
2022/02/06 14:12:03;;;;;;;4.80;3.08;;;;;;;14.13;33.55;100235.97;5070650;28;20082;-77
2022/02/06 14:14:32;;;;;;;7.05;3.05;;;;;;;14.29;33.39;100242.03;5072778;28;20070;-77
2022/02/06 14:16:58;;;;;;;5.97;3.35;;;;;;;14.21;33.02;100226.09;5069755;28;20044;-77
2022/02/06 14:19:40;;;;;;;6.32;3.95;;;;;;;14.22;32.96;100225.09;5074020;28;20039;-76
2022/02/06 14:22:06;;;;;;;10.60;4.63;;;;;;;13.99;32.86;100217.03;5074353;28;20021;-76